createdAt,value
2018-07-30T00:00:10.302Z,6.32
2018-07-30T00:00:22.721Z,6.32
2018-07-30T00:00:35.150Z,6.32
2018-07-30T00:00:47.829Z,6.32
2018-07-30T00:01:00.318Z,6.32
2018-07-30T00:01:12.729Z,6.32
2018-07-30T00:01:25.176Z,6.32
2018-07-30T00:01:37.902Z,6.32
2018-07-30T00:01:50.332Z,6.32
2018-07-30T00:02:02.761Z,6.32
2018-07-30T00:02:15.354Z,6.32
2018-07-30T00:02:27.931Z,6.32
2018-07-30T00:02:40.344Z,6.32
2018-07-30T00:02:52.912Z,6.32
2018-07-30T00:03:05.345Z,6.32
2018-07-30T00:03:17.766Z,6.32
2018-07-30T00:03:30.169Z,6.32
2018-07-30T00:03:42.564Z,6.32
2018-07-30T00:03:54.974Z,6.32
2018-07-30T00:04:07.389Z,6.32
2018-07-30T00:04:19.791Z,6.32
2018-07-30T00:04:32.197Z,6.32
2018-07-30T00:04:44.607Z,6.32
2018-07-30T00:04:56.999Z,6.32
2018-07-30T00:05:09.430Z,6.32
2018-07-30T00:05:22.273Z,6.32
2018-07-30T00:05:35.386Z,6.32
2018-07-30T00:05:47.785Z,6.32
2018-07-30T00:06:00.176Z,6.32
2018-07-30T00:06:12.616Z,6.32
2018-07-30T00:06:25.007Z,6.32
2018-07-30T00:06:37.403Z,6.32
2018-07-30T00:06:49.855Z,6.32
2018-07-30T00:07:02.256Z,6.32
2018-07-30T00:07:14.668Z,6.32
2018-07-30T00:07:27.079Z,6.32
2018-07-30T00:07:39.494Z,6.32
2018-07-30T00:07:51.893Z,6.32
2018-07-30T00:08:04.315Z,6.32
2018-07-30T00:08:16.723Z,6.32
2018-07-30T00:08:29.165Z,6.32
2018-07-30T00:08:41.565Z,6.32
2018-07-30T00:08:53.984Z,6.32
2018-07-30T00:09:06.408Z,6.32
2018-07-30T00:09:18.815Z,6.32
2018-07-30T00:09:31.216Z,5.6
2018-07-30T00:09:43.620Z,5.6
2018-07-30T00:09:56.022Z,5.6
2018-07-30T00:10:08.433Z,5.6
2018-07-30T00:10:20.835Z,5.6
2018-07-30T00:10:33.247Z,5.6
2018-07-30T00:10:45.648Z,5.6
2018-07-30T00:10:58.060Z,5.6
2018-07-30T00:11:10.458Z,5.6
2018-07-30T00:11:22.839Z,5.6
2018-07-30T00:11:35.299Z,5.6
2018-07-30T00:11:47.781Z,5.6
2018-07-30T00:12:00.191Z,5.6
2018-07-30T00:12:12.583Z,5.6
2018-07-30T00:12:24.998Z,5.6
2018-07-30T00:12:37.397Z,5.6
2018-07-30T00:12:49.812Z,5.6
2018-07-30T00:13:02.259Z,5.6
2018-07-30T00:13:14.672Z,5.6
2018-07-30T00:13:27.207Z,5.6
2018-07-30T00:13:39.592Z,5.6
2018-07-30T00:13:51.972Z,5.6
2018-07-30T00:14:04.368Z,5.6
2018-07-30T00:14:17.275Z,5.6
2018-07-30T00:14:30.203Z,5.6
2018-07-30T00:14:42.620Z,5.6
2018-07-30T00:14:55.023Z,5.6
2018-07-30T00:15:07.433Z,5.6
2018-07-30T00:15:19.876Z,5.6
2018-07-30T00:15:32.296Z,5.6
2018-07-30T00:15:44.712Z,5.6
2018-07-30T00:15:57.153Z,5.6
2018-07-30T00:16:09.713Z,5.6
2018-07-30T00:16:22.096Z,5.6
2018-07-30T00:16:34.507Z,5.6
2018-07-30T00:16:46.924Z,5.6
2018-07-30T00:16:59.338Z,5.6
2018-07-30T00:17:11.739Z,5.6
2018-07-30T00:17:24.133Z,5.6
2018-07-30T00:17:36.523Z,5.6
2018-07-30T00:17:48.925Z,5.6
2018-07-30T00:18:01.314Z,5.6
2018-07-30T00:18:13.717Z,5.6
2018-07-30T00:18:26.114Z,5.6
2018-07-30T00:18:38.526Z,5.6
2018-07-30T00:18:50.967Z,5.6
2018-07-30T00:19:03.358Z,5.6
2018-07-30T00:19:15.763Z,5.6
2018-07-30T00:19:28.225Z,5.6
2018-07-30T00:19:40.622Z,5.81
2018-07-30T00:19:53.019Z,5.81
2018-07-30T00:20:05.422Z,5.81
2018-07-30T00:20:17.854Z,5.81
2018-07-30T00:20:30.257Z,5.81
2018-07-30T00:20:42.659Z,5.81
2018-07-30T00:20:55.067Z,5.81
2018-07-30T00:21:07.470Z,5.81
2018-07-30T00:21:20.040Z,5.81
2018-07-30T00:21:33.356Z,5.81
2018-07-30T00:21:45.948Z,5.81
2018-07-30T00:21:58.359Z,5.81
2018-07-30T00:22:10.774Z,5.81
2018-07-30T00:22:23.177Z,5.81
2018-07-30T00:22:35.591Z,5.81
2018-07-30T00:22:47.981Z,5.81
2018-07-30T00:23:00.386Z,5.81
2018-07-30T00:23:13.010Z,5.81
2018-07-30T00:23:25.405Z,5.81
2018-07-30T00:23:37.812Z,5.81
2018-07-30T00:23:50.227Z,5.81
2018-07-30T00:24:02.611Z,5.81
2018-07-30T00:24:15.014Z,5.81
2018-07-30T00:24:27.427Z,5.81
2018-07-30T00:24:39.832Z,5.81
2018-07-30T00:24:52.229Z,5.81
2018-07-30T00:25:04.627Z,5.81
2018-07-30T00:25:17.061Z,5.81
2018-07-30T00:25:29.488Z,5.81
2018-07-30T00:25:41.897Z,5.81
2018-07-30T00:25:54.305Z,5.81
2018-07-30T00:26:06.727Z,5.81
2018-07-30T00:26:19.123Z,5.81
2018-07-30T00:26:31.662Z,5.81
2018-07-30T00:26:44.077Z,5.81
2018-07-30T00:26:56.494Z,5.81
2018-07-30T00:27:08.917Z,5.81
2018-07-30T00:27:21.335Z,5.81
2018-07-30T00:27:33.751Z,5.81
2018-07-30T00:27:46.148Z,5.81
2018-07-30T00:27:58.531Z,5.81
2018-07-30T00:28:10.955Z,5.81
2018-07-30T00:28:23.480Z,5.81
2018-07-30T00:28:35.864Z,5.81
2018-07-30T00:28:48.274Z,5.81
2018-07-30T00:29:00.675Z,5.81
2018-07-30T00:29:13.081Z,5.81
2018-07-30T00:29:25.481Z,5.81
2018-07-30T00:29:37.886Z,6.57
2018-07-30T00:29:50.280Z,6.57
2018-07-30T00:30:02.698Z,6.57
2018-07-30T00:30:15.221Z,6.57
2018-07-30T00:30:27.646Z,6.57
2018-07-30T00:30:40.054Z,6.57
2018-07-30T00:30:52.456Z,6.57
2018-07-30T00:31:04.873Z,6.57
2018-07-30T00:31:17.289Z,6.57
2018-07-30T00:31:30.462Z,6.57
2018-07-30T00:31:43.259Z,6.57
2018-07-30T00:31:55.660Z,6.57
2018-07-30T00:32:08.069Z,6.57
2018-07-30T00:32:20.507Z,6.57
2018-07-30T00:32:32.891Z,6.57
2018-07-30T00:32:45.304Z,6.57
2018-07-30T00:32:57.758Z,6.57
2018-07-30T00:33:10.174Z,6.57
2018-07-30T00:33:22.586Z,6.57
2018-07-30T00:33:34.985Z,6.57
2018-07-30T00:33:47.444Z,6.57
2018-07-30T00:33:59.941Z,6.57
2018-07-30T00:34:12.337Z,6.57
2018-07-30T00:34:24.732Z,6.57
2018-07-30T00:34:37.154Z,6.57
2018-07-30T00:34:49.571Z,6.57
2018-07-30T00:35:01.974Z,6.57
2018-07-30T00:35:14.365Z,6.57
2018-07-30T00:35:26.761Z,6.57
2018-07-30T00:35:39.180Z,6.57
2018-07-30T00:35:51.586Z,6.57
2018-07-30T00:36:04.014Z,6.57
2018-07-30T00:36:16.423Z,6.57
2018-07-30T00:36:28.819Z,6.57
2018-07-30T00:36:41.227Z,6.57
2018-07-30T00:36:53.687Z,6.57
2018-07-30T00:37:06.098Z,6.57
2018-07-30T00:37:18.590Z,6.57
2018-07-30T00:37:30.982Z,6.57
2018-07-30T00:37:43.387Z,6.57
2018-07-30T00:37:55.800Z,6.57
2018-07-30T00:38:08.192Z,6.57
2018-07-30T00:38:20.576Z,6.57
2018-07-30T00:38:32.977Z,6.57
2018-07-30T00:38:45.373Z,6.57
2018-07-30T00:38:57.771Z,6.57
2018-07-30T00:39:10.175Z,6.57
2018-07-30T00:39:22.559Z,6.57
2018-07-30T00:39:34.944Z,6.4
2018-07-30T00:39:47.355Z,6.4
2018-07-30T00:39:59.747Z,6.4
2018-07-30T00:40:12.141Z,6.4
2018-07-30T00:40:24.549Z,6.4
2018-07-30T00:40:36.962Z,6.4
2018-07-30T00:40:49.361Z,6.4
2018-07-30T00:41:01.762Z,6.4
2018-07-30T00:41:14.159Z,6.4
2018-07-30T00:41:26.542Z,6.4
2018-07-30T00:41:38.942Z,6.4
2018-07-30T00:41:51.344Z,6.4
2018-07-30T00:42:03.750Z,6.4
2018-07-30T00:42:16.146Z,6.4
2018-07-30T00:42:28.581Z,6.4
2018-07-30T00:42:40.978Z,6.4
2018-07-30T00:42:53.398Z,6.4
2018-07-30T00:43:05.806Z,6.4
2018-07-30T00:43:18.207Z,6.4
2018-07-30T00:43:30.730Z,6.4
2018-07-30T00:43:43.131Z,6.4
2018-07-30T00:43:55.519Z,6.4
2018-07-30T00:44:07.936Z,6.4
2018-07-30T00:44:20.334Z,6.4
2018-07-30T00:44:32.754Z,6.4
2018-07-30T00:44:45.390Z,6.4
2018-07-30T00:44:57.789Z,6.4
2018-07-30T00:45:10.246Z,6.4
2018-07-30T00:45:22.652Z,6.4
2018-07-30T00:45:35.070Z,6.4
2018-07-30T00:45:47.489Z,6.4
2018-07-30T00:45:59.900Z,6.4
2018-07-30T00:46:12.315Z,6.4
2018-07-30T00:46:24.704Z,6.4
2018-07-30T00:46:37.097Z,6.4
2018-07-30T00:46:49.504Z,6.4
2018-07-30T00:47:01.905Z,6.4
2018-07-30T00:47:14.340Z,6.4
2018-07-30T00:47:26.735Z,6.4
2018-07-30T00:47:39.133Z,6.4
2018-07-30T00:47:51.538Z,6.4
2018-07-30T00:48:03.960Z,6.4
2018-07-30T00:48:17.088Z,6.4
2018-07-30T00:48:30.145Z,6.4
2018-07-30T00:48:42.555Z,6.4
2018-07-30T00:48:55.358Z,6.4
2018-07-30T00:49:07.741Z,6.4
2018-07-30T00:49:20.152Z,6.4
2018-07-30T00:49:32.546Z,6.4
2018-07-30T00:49:44.945Z,6.38
2018-07-30T00:49:57.425Z,6.38
2018-07-30T00:50:09.821Z,6.38
2018-07-30T00:50:22.208Z,6.38
2018-07-30T00:50:34.596Z,6.38
2018-07-30T00:50:46.998Z,6.38
2018-07-30T00:50:59.381Z,6.38
2018-07-30T00:51:11.805Z,6.38
2018-07-30T00:51:24.215Z,6.38
2018-07-30T00:51:36.633Z,6.38
2018-07-30T00:51:49.026Z,6.38
2018-07-30T00:52:01.426Z,6.38
2018-07-30T00:52:13.824Z,6.38
2018-07-30T00:52:26.249Z,6.38
2018-07-30T00:52:38.667Z,6.38
2018-07-30T00:52:51.105Z,6.38
2018-07-30T00:53:03.550Z,6.38
2018-07-30T00:53:15.966Z,6.38
2018-07-30T00:53:28.373Z,6.38
2018-07-30T00:53:40.767Z,6.38
2018-07-30T00:53:53.257Z,6.38
2018-07-30T00:54:05.656Z,6.38
2018-07-30T00:54:18.041Z,6.38
2018-07-30T00:54:30.437Z,6.38
2018-07-30T00:54:42.860Z,6.38
2018-07-30T00:54:55.590Z,6.38
2018-07-30T00:55:08.706Z,6.38
2018-07-30T00:55:21.114Z,6.38
2018-07-30T00:55:33.543Z,6.38
2018-07-30T00:55:45.953Z,6.38
2018-07-30T00:55:58.360Z,6.38
2018-07-30T00:56:10.909Z,6.38
2018-07-30T00:56:23.292Z,6.38
2018-07-30T00:56:35.712Z,6.38
2018-07-30T00:56:48.396Z,6.38
2018-07-30T00:57:01.777Z,6.38
2018-07-30T00:57:14.186Z,6.38
2018-07-30T00:57:26.592Z,6.38
2018-07-30T00:57:38.991Z,6.38
2018-07-30T00:57:51.391Z,6.38
2018-07-30T00:58:04.082Z,6.38
2018-07-30T00:58:16.477Z,6.38
2018-07-30T00:58:28.881Z,6.38
2018-07-30T00:58:41.292Z,6.38
2018-07-30T00:58:53.689Z,6.38
2018-07-30T00:59:06.116Z,6.38
2018-07-30T00:59:18.537Z,6.38
2018-07-30T00:59:30.988Z,6.38
2018-07-30T00:59:43.376Z,5.83
2018-07-30T00:59:55.814Z,5.83
2018-07-30T01:00:08.220Z,5.83
2018-07-30T01:00:20.657Z,5.83
2018-07-30T01:00:33.092Z,5.83
2018-07-30T01:00:45.686Z,5.83
2018-07-30T01:00:58.126Z,5.83
2018-07-30T01:01:10.540Z,5.83
2018-07-30T01:01:22.940Z,5.83
2018-07-30T01:01:35.348Z,5.83
2018-07-30T01:01:47.753Z,5.83
2018-07-30T01:02:00.163Z,5.83
2018-07-30T01:02:12.719Z,5.83
2018-07-30T01:02:25.352Z,5.83
2018-07-30T01:02:37.774Z,5.83
2018-07-30T01:02:50.189Z,5.83
2018-07-30T01:03:02.583Z,5.83
2018-07-30T01:03:15.003Z,5.83
2018-07-30T01:03:27.430Z,5.83
2018-07-30T01:03:39.842Z,5.83
2018-07-30T01:03:52.244Z,5.83
2018-07-30T01:04:04.679Z,5.83
2018-07-30T01:04:17.095Z,5.83
2018-07-30T01:04:29.544Z,5.83
2018-07-30T01:04:41.948Z,5.83
2018-07-30T01:04:54.378Z,5.83
2018-07-30T01:05:06.804Z,5.83
2018-07-30T01:05:19.211Z,5.83
2018-07-30T01:05:31.637Z,5.83
2018-07-30T01:05:44.042Z,5.83
2018-07-30T01:05:56.512Z,5.83
2018-07-30T01:06:08.921Z,5.83
2018-07-30T01:06:21.327Z,5.83
2018-07-30T01:06:33.730Z,5.83
2018-07-30T01:06:46.123Z,5.83
2018-07-30T01:06:58.562Z,5.83
2018-07-30T01:07:11.053Z,5.83
2018-07-30T01:07:23.503Z,5.83
2018-07-30T01:07:36.059Z,5.83
2018-07-30T01:07:49.212Z,5.83
2018-07-30T01:08:01.645Z,5.83
2018-07-30T01:08:14.124Z,5.83
2018-07-30T01:08:26.513Z,5.83
2018-07-30T01:08:38.917Z,5.83
2018-07-30T01:08:51.359Z,5.83
2018-07-30T01:09:03.891Z,5.83
2018-07-30T01:09:16.285Z,5.83
2018-07-30T01:09:28.705Z,5.83
2018-07-30T01:09:41.119Z,7.32
2018-07-30T01:09:53.525Z,7.32
2018-07-30T01:10:05.912Z,7.32
2018-07-30T01:10:18.308Z,7.32
2018-07-30T01:10:30.688Z,7.32
2018-07-30T01:10:43.115Z,7.32
2018-07-30T01:10:55.486Z,7.32
2018-07-30T01:11:07.898Z,7.32
2018-07-30T01:11:20.288Z,7.32
2018-07-30T01:11:32.682Z,7.32
2018-07-30T01:11:45.149Z,7.32
2018-07-30T01:11:57.544Z,7.32
2018-07-30T01:12:09.924Z,7.32
2018-07-30T01:12:22.351Z,7.32
2018-07-30T01:12:34.771Z,7.32
2018-07-30T01:12:47.171Z,7.32
2018-07-30T01:12:59.568Z,7.32
2018-07-30T01:13:11.985Z,7.32
2018-07-30T01:13:24.407Z,7.32
2018-07-30T01:13:36.819Z,7.32
2018-07-30T01:13:49.245Z,7.32
2018-07-30T01:14:01.657Z,7.32
2018-07-30T01:14:14.072Z,7.32
2018-07-30T01:14:27.103Z,7.32
2018-07-30T01:14:40.143Z,7.32
2018-07-30T01:14:52.553Z,7.32
2018-07-30T01:15:04.946Z,7.32
2018-07-30T01:15:17.341Z,7.32
2018-07-30T01:15:29.748Z,7.32
2018-07-30T01:15:42.148Z,7.32
2018-07-30T01:15:54.585Z,7.32
2018-07-30T01:16:06.997Z,7.32
2018-07-30T01:16:19.429Z,7.32
2018-07-30T01:16:31.859Z,7.32
2018-07-30T01:16:44.259Z,7.32
2018-07-30T01:16:56.675Z,7.32
2018-07-30T01:17:09.060Z,7.32
2018-07-30T01:17:21.457Z,7.32
2018-07-30T01:17:33.861Z,7.32
2018-07-30T01:17:46.252Z,7.32
2018-07-30T01:17:58.665Z,7.32
2018-07-30T01:18:11.097Z,7.32
2018-07-30T01:18:23.493Z,7.32
2018-07-30T01:18:35.901Z,7.32
2018-07-30T01:18:48.305Z,7.32
2018-07-30T01:19:00.717Z,7.32
2018-07-30T01:19:13.107Z,7.32
2018-07-30T01:19:25.627Z,7.32
2018-07-30T01:19:38.128Z,6.71
2018-07-30T01:19:50.529Z,6.71
2018-07-30T01:20:02.931Z,6.71
2018-07-30T01:20:15.443Z,6.71
2018-07-30T01:20:27.843Z,6.71
2018-07-30T01:20:40.252Z,6.71
2018-07-30T01:20:52.684Z,6.71
2018-07-30T01:21:05.070Z,6.71
2018-07-30T01:21:17.459Z,6.71
2018-07-30T01:21:29.890Z,6.71
2018-07-30T01:21:43.165Z,6.71
2018-07-30T01:21:55.735Z,6.71
2018-07-30T01:22:08.142Z,6.71
2018-07-30T01:22:20.557Z,6.71
2018-07-30T01:22:32.974Z,6.71
2018-07-30T01:22:45.369Z,6.71
2018-07-30T01:22:57.761Z,6.71
2018-07-30T01:23:10.148Z,6.71
2018-07-30T01:23:22.768Z,6.71
2018-07-30T01:23:35.146Z,6.71
2018-07-30T01:23:47.534Z,6.71
2018-07-30T01:23:59.989Z,6.71
2018-07-30T01:24:12.438Z,6.71
2018-07-30T01:24:24.824Z,6.71
2018-07-30T01:24:37.222Z,6.71
2018-07-30T01:24:49.685Z,6.71
2018-07-30T01:25:02.082Z,6.71
2018-07-30T01:25:14.493Z,6.71
2018-07-30T01:25:26.891Z,6.71
2018-07-30T01:25:39.300Z,6.71
2018-07-30T01:25:51.742Z,6.71
2018-07-30T01:26:04.139Z,6.71
2018-07-30T01:26:16.541Z,6.71
2018-07-30T01:26:29.086Z,6.71
2018-07-30T01:26:41.479Z,6.71
2018-07-30T01:26:53.890Z,6.71
2018-07-30T01:27:06.271Z,6.71
2018-07-30T01:27:18.696Z,6.71
2018-07-30T01:27:31.102Z,6.71
2018-07-30T01:27:43.513Z,6.71
2018-07-30T01:27:55.941Z,6.71
2018-07-30T01:28:08.324Z,6.71
2018-07-30T01:28:20.850Z,6.71
2018-07-30T01:28:33.235Z,6.71
2018-07-30T01:28:45.634Z,6.71
2018-07-30T01:28:58.071Z,6.71
2018-07-30T01:29:10.467Z,6.71
2018-07-30T01:29:22.867Z,6.71
2018-07-30T01:29:35.297Z,7.48
2018-07-30T01:29:47.721Z,7.48
2018-07-30T01:30:00.123Z,7.48
2018-07-30T01:30:12.528Z,7.48
2018-07-30T01:30:24.942Z,7.48
2018-07-30T01:30:37.337Z,7.48
2018-07-30T01:30:49.739Z,7.48
2018-07-30T01:31:02.127Z,7.48
2018-07-30T01:31:14.536Z,7.48
2018-07-30T01:31:26.931Z,7.48
2018-07-30T01:31:39.368Z,7.48
2018-07-30T01:31:51.766Z,7.48
2018-07-30T01:32:04.183Z,7.48
2018-07-30T01:32:16.589Z,7.48
2018-07-30T01:32:28.986Z,7.48
2018-07-30T01:32:41.389Z,7.48
2018-07-30T01:32:53.806Z,7.48
2018-07-30T01:33:06.199Z,7.48
2018-07-30T01:33:18.595Z,7.48
2018-07-30T01:33:31.033Z,7.48
2018-07-30T01:33:43.420Z,7.48
2018-07-30T01:33:55.839Z,7.48
2018-07-30T01:34:08.253Z,7.48
2018-07-30T01:34:20.665Z,7.48
2018-07-30T01:34:33.126Z,7.48
2018-07-30T01:34:45.550Z,7.48
2018-07-30T01:34:58.016Z,7.48
2018-07-30T01:35:10.417Z,7.48
2018-07-30T01:35:22.817Z,7.48
2018-07-30T01:35:35.236Z,7.48
2018-07-30T01:35:47.656Z,7.48
2018-07-30T01:36:00.067Z,7.48
2018-07-30T01:36:12.454Z,7.48
2018-07-30T01:36:24.838Z,7.48
2018-07-30T01:36:37.248Z,7.48
2018-07-30T01:36:49.682Z,7.48
2018-07-30T01:37:02.085Z,7.48
2018-07-30T01:37:14.489Z,7.48
2018-07-30T01:37:27.023Z,7.48
2018-07-30T01:37:39.442Z,7.48
2018-07-30T01:37:51.847Z,7.48
2018-07-30T01:38:04.257Z,7.48
2018-07-30T01:38:16.655Z,7.48
2018-07-30T01:38:29.060Z,7.48
2018-07-30T01:38:41.472Z,7.48
2018-07-30T01:38:53.886Z,7.48
2018-07-30T01:39:06.278Z,7.48
2018-07-30T01:39:18.683Z,7.48
2018-07-30T01:39:31.121Z,7.48
2018-07-30T01:39:43.529Z,6.25
2018-07-30T01:39:55.944Z,6.25
2018-07-30T01:40:08.397Z,6.25
2018-07-30T01:40:20.789Z,6.25
2018-07-30T01:40:33.182Z,6.25
2018-07-30T01:40:45.581Z,6.25
2018-07-30T01:40:58.043Z,6.25
2018-07-30T01:41:10.461Z,6.25
2018-07-30T01:41:22.855Z,6.25
2018-07-30T01:41:35.243Z,6.25
2018-07-30T01:41:47.662Z,6.25
2018-07-30T01:42:00.066Z,6.25
2018-07-30T01:42:12.465Z,6.25
2018-07-30T01:42:24.880Z,6.25
2018-07-30T01:42:37.325Z,6.25
2018-07-30T01:42:49.761Z,6.25
2018-07-30T01:43:02.211Z,6.25
2018-07-30T01:43:14.632Z,6.25
2018-07-30T01:43:27.027Z,6.25
2018-07-30T01:43:39.421Z,6.25
2018-07-30T01:43:51.823Z,6.25
2018-07-30T01:44:04.409Z,6.25
2018-07-30T01:44:16.830Z,6.25
2018-07-30T01:44:29.231Z,6.25
2018-07-30T01:44:41.767Z,6.25
2018-07-30T01:44:54.166Z,6.25
2018-07-30T01:45:06.558Z,6.25
2018-07-30T01:45:18.958Z,6.25
2018-07-30T01:45:31.414Z,6.25
2018-07-30T01:45:43.795Z,6.25
2018-07-30T01:45:56.213Z,6.25
2018-07-30T01:46:08.621Z,6.25
2018-07-30T01:46:21.030Z,6.25
2018-07-30T01:46:33.427Z,6.25
2018-07-30T01:46:45.815Z,6.25
2018-07-30T01:46:58.201Z,6.25
2018-07-30T01:47:10.608Z,6.25
2018-07-30T01:47:23.021Z,6.25
2018-07-30T01:47:35.458Z,6.25
2018-07-30T01:47:47.879Z,6.25
2018-07-30T01:48:00.288Z,6.25
2018-07-30T01:48:12.703Z,6.25
2018-07-30T01:48:25.109Z,6.25
2018-07-30T01:48:37.495Z,6.25
2018-07-30T01:48:50.088Z,6.25
2018-07-30T01:49:02.475Z,6.25
2018-07-30T01:49:14.866Z,6.25
2018-07-30T01:49:27.318Z,6.25
2018-07-30T01:49:39.716Z,6.57
2018-07-30T01:49:52.121Z,6.57
2018-07-30T01:50:04.518Z,6.57
2018-07-30T01:50:16.904Z,6.57
2018-07-30T01:50:29.315Z,6.57
2018-07-30T01:50:41.717Z,6.57
2018-07-30T01:50:54.102Z,6.57
2018-07-30T01:51:06.497Z,6.57
2018-07-30T01:51:18.928Z,6.57
2018-07-30T01:51:31.318Z,6.57
2018-07-30T01:51:43.727Z,6.57
2018-07-30T01:51:56.131Z,6.57
2018-07-30T01:52:08.534Z,6.57
2018-07-30T01:52:20.938Z,6.57
2018-07-30T01:52:33.327Z,6.57
2018-07-30T01:52:45.750Z,6.57
2018-07-30T01:52:58.156Z,6.57
2018-07-30T01:53:10.557Z,6.57
2018-07-30T01:53:22.990Z,6.57
2018-07-30T01:53:35.400Z,6.57
2018-07-30T01:53:47.798Z,6.57
2018-07-30T01:54:00.252Z,6.57
2018-07-30T01:54:12.647Z,6.57
2018-07-30T01:54:25.065Z,6.57
2018-07-30T01:54:37.454Z,6.57
2018-07-30T01:54:49.835Z,6.57
2018-07-30T01:55:02.241Z,6.57
2018-07-30T01:55:14.653Z,6.57
2018-07-30T01:55:27.500Z,6.57
2018-07-30T01:55:40.623Z,6.57
2018-07-30T01:55:53.036Z,6.57
2018-07-30T01:56:05.432Z,6.57
2018-07-30T01:56:18.158Z,6.57
2018-07-30T01:56:30.560Z,6.57
2018-07-30T01:56:43.004Z,6.57
2018-07-30T01:56:55.417Z,6.57
2018-07-30T01:57:07.833Z,6.57
2018-07-30T01:57:20.215Z,6.57
2018-07-30T01:57:32.627Z,6.57
2018-07-30T01:57:45.012Z,6.57
2018-07-30T01:57:57.408Z,6.57
2018-07-30T01:58:10.021Z,6.57
2018-07-30T01:58:22.448Z,6.57
2018-07-30T01:58:34.860Z,6.57
2018-07-30T01:58:47.369Z,6.57
2018-07-30T01:58:59.767Z,6.57
2018-07-30T01:59:12.178Z,6.57
2018-07-30T01:59:24.566Z,6.57
2018-07-30T01:59:36.972Z,7.01
2018-07-30T01:59:49.383Z,7.01
2018-07-30T02:00:01.784Z,7.01
2018-07-30T02:00:14.209Z,7.01
2018-07-30T02:00:26.622Z,7.01
2018-07-30T02:00:39.072Z,7.01
2018-07-30T02:00:51.713Z,7.01
2018-07-30T02:01:04.145Z,7.01
2018-07-30T02:01:16.558Z,7.01
2018-07-30T02:01:28.960Z,7.01
2018-07-30T02:01:41.368Z,7.01
2018-07-30T02:01:53.807Z,7.01
2018-07-30T02:02:06.383Z,7.01
2018-07-30T02:02:18.953Z,7.01
2018-07-30T02:02:31.353Z,7.01
2018-07-30T02:02:43.756Z,7.01
2018-07-30T02:02:56.296Z,7.01
2018-07-30T02:03:08.691Z,7.01
2018-07-30T02:03:21.105Z,7.01
2018-07-30T02:03:33.511Z,7.01
2018-07-30T02:03:45.932Z,7.01
2018-07-30T02:03:58.338Z,7.01
2018-07-30T02:04:10.762Z,7.01
2018-07-30T02:04:23.168Z,7.01
2018-07-30T02:04:35.599Z,7.01
2018-07-30T02:04:48.003Z,7.01
2018-07-30T02:05:00.400Z,7.01
2018-07-30T02:05:12.813Z,7.01
2018-07-30T02:05:25.220Z,7.01
2018-07-30T02:05:37.616Z,7.01
2018-07-30T02:05:50.035Z,7.01
2018-07-30T02:06:02.460Z,7.01
2018-07-30T02:06:14.999Z,7.01
2018-07-30T02:06:27.415Z,7.01
2018-07-30T02:06:39.813Z,7.01
2018-07-30T02:06:52.211Z,7.01
2018-07-30T02:07:04.667Z,7.01
2018-07-30T02:07:17.381Z,7.01
2018-07-30T02:07:29.783Z,7.01
2018-07-30T02:07:42.188Z,7.01
2018-07-30T02:07:54.572Z,7.01
2018-07-30T02:08:06.973Z,7.01
2018-07-30T02:08:19.351Z,7.01
2018-07-30T02:08:31.749Z,7.01
2018-07-30T02:08:44.139Z,7.01
2018-07-30T02:08:56.532Z,7.01
2018-07-30T02:09:08.933Z,7.01
2018-07-30T02:09:21.323Z,7.01
2018-07-30T02:09:33.717Z,7.01
2018-07-30T02:09:46.135Z,6.13
2018-07-30T02:09:58.587Z,6.13
2018-07-30T02:10:10.980Z,6.13
2018-07-30T02:10:23.379Z,6.13
2018-07-30T02:10:35.783Z,6.13
2018-07-30T02:10:48.189Z,6.13
2018-07-30T02:11:00.574Z,6.13
2018-07-30T02:11:12.966Z,6.13
2018-07-30T02:11:25.378Z,6.13
2018-07-30T02:11:37.782Z,6.13
2018-07-30T02:11:50.165Z,6.13
2018-07-30T02:12:02.583Z,6.13
2018-07-30T02:12:15.018Z,6.13
2018-07-30T02:12:27.426Z,6.13
2018-07-30T02:12:39.834Z,6.13
2018-07-30T02:12:52.223Z,6.13
2018-07-30T02:13:04.617Z,6.13
2018-07-30T02:13:17.017Z,6.13
2018-07-30T02:13:29.437Z,6.13
2018-07-30T02:13:41.849Z,6.13
2018-07-30T02:13:54.286Z,6.13
2018-07-30T02:14:06.683Z,6.13
2018-07-30T02:14:19.075Z,6.13
2018-07-30T02:14:31.497Z,6.13
2018-07-30T02:14:43.900Z,6.13
2018-07-30T02:14:56.305Z,6.13
2018-07-30T02:15:08.704Z,6.13
2018-07-30T02:15:21.102Z,6.13
2018-07-30T02:15:33.529Z,6.13
2018-07-30T02:15:45.948Z,6.13
2018-07-30T02:15:58.353Z,6.13
2018-07-30T02:16:10.765Z,6.13
2018-07-30T02:16:23.304Z,6.13
2018-07-30T02:16:35.703Z,6.13
2018-07-30T02:16:48.120Z,6.13
2018-07-30T02:17:00.538Z,6.13
2018-07-30T02:17:12.940Z,6.13
2018-07-30T02:17:25.395Z,6.13
2018-07-30T02:17:37.855Z,6.13
2018-07-30T02:17:50.270Z,6.13
2018-07-30T02:18:02.679Z,6.13
2018-07-30T02:18:15.093Z,6.13
2018-07-30T02:18:27.486Z,6.13
2018-07-30T02:18:39.879Z,6.13
2018-07-30T02:18:52.268Z,6.13
2018-07-30T02:19:04.674Z,6.13
2018-07-30T02:19:17.098Z,6.13
2018-07-30T02:19:29.567Z,6.13
2018-07-30T02:19:41.959Z,6.71
2018-07-30T02:19:54.375Z,6.71
2018-07-30T02:20:06.789Z,6.71
2018-07-30T02:20:19.184Z,6.71
2018-07-30T02:20:31.571Z,6.71
2018-07-30T02:20:43.989Z,6.71
2018-07-30T02:20:56.380Z,6.71
2018-07-30T02:21:08.786Z,6.71
2018-07-30T02:21:21.284Z,6.71
2018-07-30T02:21:34.642Z,6.71
2018-07-30T02:21:47.156Z,6.71
2018-07-30T02:21:59.588Z,6.71
2018-07-30T02:22:11.988Z,6.71
2018-07-30T02:22:24.385Z,6.71
2018-07-30T02:22:36.796Z,6.71
2018-07-30T02:22:49.190Z,6.71
2018-07-30T02:23:01.623Z,6.71
2018-07-30T02:23:14.212Z,6.71
2018-07-30T02:23:26.592Z,6.71
2018-07-30T02:23:39.003Z,6.71
2018-07-30T02:23:51.473Z,6.71
2018-07-30T02:24:03.866Z,6.71
2018-07-30T02:24:16.285Z,6.71
2018-07-30T02:24:28.680Z,6.71
2018-07-30T02:24:41.078Z,6.71
2018-07-30T02:24:53.485Z,6.71
2018-07-30T02:25:05.883Z,6.71
2018-07-30T02:25:18.284Z,6.71
2018-07-30T02:25:30.698Z,6.71
2018-07-30T02:25:43.085Z,6.71
2018-07-30T02:25:55.495Z,6.71
2018-07-30T02:26:07.881Z,6.71
2018-07-30T02:26:20.330Z,6.71
2018-07-30T02:26:32.864Z,6.71
2018-07-30T02:26:45.282Z,6.71
2018-07-30T02:26:57.852Z,6.71
2018-07-30T02:27:10.261Z,6.71
2018-07-30T02:27:22.672Z,6.71
2018-07-30T02:27:35.073Z,6.71
2018-07-30T02:27:47.463Z,6.71
2018-07-30T02:27:59.855Z,6.71
2018-07-30T02:28:12.270Z,6.71
2018-07-30T02:28:25.060Z,6.71
2018-07-30T02:28:37.459Z,6.71
2018-07-30T02:28:49.857Z,6.71
2018-07-30T02:29:02.265Z,6.71
2018-07-30T02:29:14.673Z,6.71
2018-07-30T02:29:27.065Z,6.71
2018-07-30T02:29:39.448Z,6.79
2018-07-30T02:29:51.856Z,6.79
2018-07-30T02:30:04.300Z,6.79
2018-07-30T02:30:16.741Z,6.79
2018-07-30T02:30:29.167Z,6.79
2018-07-30T02:30:41.569Z,6.79
2018-07-30T02:30:54.081Z,6.79
2018-07-30T02:31:06.509Z,6.79
2018-07-30T02:31:18.928Z,6.79
2018-07-30T02:31:31.329Z,6.79
2018-07-30T02:31:43.746Z,6.79
2018-07-30T02:31:56.177Z,6.79
2018-07-30T02:32:08.602Z,6.79
2018-07-30T02:32:21.009Z,6.79
2018-07-30T02:32:33.414Z,6.79
2018-07-30T02:32:45.839Z,6.79
2018-07-30T02:32:58.265Z,6.79
2018-07-30T02:33:10.698Z,6.79
2018-07-30T02:33:23.125Z,6.79
2018-07-30T02:33:35.555Z,6.79
2018-07-30T02:33:47.975Z,6.79
2018-07-30T02:34:00.388Z,6.79
2018-07-30T02:34:12.830Z,6.79
2018-07-30T02:34:25.250Z,6.79
2018-07-30T02:34:37.676Z,6.79
2018-07-30T02:34:50.093Z,6.79
2018-07-30T02:35:02.516Z,6.79
2018-07-30T02:35:14.930Z,6.79
2018-07-30T02:35:27.336Z,6.79
2018-07-30T02:35:39.747Z,6.79
2018-07-30T02:35:52.166Z,6.79
2018-07-30T02:36:04.598Z,6.79
2018-07-30T02:36:17.058Z,6.79
2018-07-30T02:36:29.479Z,6.79
2018-07-30T02:36:41.979Z,6.79
2018-07-30T02:36:54.428Z,6.79
2018-07-30T02:37:06.863Z,6.79
2018-07-30T02:37:19.630Z,6.79
2018-07-30T02:37:32.031Z,6.79
2018-07-30T02:37:44.469Z,6.79
2018-07-30T02:37:56.911Z,6.79
2018-07-30T02:38:09.355Z,6.79
2018-07-30T02:38:21.770Z,6.79
2018-07-30T02:38:34.193Z,6.79
2018-07-30T02:38:46.625Z,6.79
2018-07-30T02:38:59.036Z,6.79
2018-07-30T02:39:11.486Z,6.79
2018-07-30T02:39:23.907Z,6.79
2018-07-30T02:39:36.382Z,6.79
2018-07-30T02:39:48.821Z,6.29
2018-07-30T02:40:01.253Z,6.29
2018-07-30T02:40:13.671Z,6.29
2018-07-30T02:40:26.116Z,6.29
2018-07-30T02:40:38.540Z,6.29
2018-07-30T02:40:50.949Z,6.29
2018-07-30T02:41:03.373Z,6.29
2018-07-30T02:41:15.815Z,6.29
2018-07-30T02:41:28.231Z,6.29
2018-07-30T02:41:40.733Z,6.29
2018-07-30T02:41:53.129Z,6.29
2018-07-30T02:42:05.550Z,6.29
2018-07-30T02:42:18.001Z,6.29
2018-07-30T02:42:30.489Z,6.29
2018-07-30T02:42:43.041Z,6.29
2018-07-30T02:42:55.465Z,6.29
2018-07-30T02:43:07.888Z,6.29
2018-07-30T02:43:20.302Z,6.29
2018-07-30T02:43:32.713Z,6.29
2018-07-30T02:43:45.132Z,6.29
2018-07-30T02:43:57.563Z,6.29
2018-07-30T02:44:09.981Z,6.29
2018-07-30T02:44:22.457Z,6.29
2018-07-30T02:44:34.905Z,6.29
2018-07-30T02:44:47.396Z,6.29
2018-07-30T02:44:59.829Z,6.29
2018-07-30T02:45:12.245Z,6.29
2018-07-30T02:45:24.678Z,6.29
2018-07-30T02:45:37.104Z,6.29
2018-07-30T02:45:49.554Z,6.29
2018-07-30T02:46:01.963Z,6.29
2018-07-30T02:46:14.402Z,6.29